sensor_id;sensor_type;location;lat;lon;timestamp;pressure;altitude;pressure_sealevel;temperature;humidity
70468;BME280;57934;51.532;7.684;2023-03-11T00:02:16;99197.88;;;0.31;100.00
70468;BME280;57934;51.532;7.684;2023-03-11T00:04:42;99212.78;;;0.29;100.00
70468;BME280;57934;51.532;7.684;2023-03-11T00:07:09;99221.81;;;0.24;100.00
70468;BME280;57934;51.532;7.684;2023-03-11T00:09:36;99222.94;;;0.22;100.00
70468;BME280;57934;51.532;7.684;2023-03-11T00:12:03;99240.28;;;0.21;100.00
70468;BME280;57934;51.532;7.684;2023-03-11T00:14:29;99232.81;;;0.18;100.00
70468;BME280;57934;51.532;7.684;2023-03-11T00:16:55;99244.97;;;0.18;100.00
70468;BME280;57934;51.532;7.684;2023-03-11T00:19:21;99247.34;;;0.11;100.00
70468;BME280;57934;51.532;7.684;2023-03-11T00:21:48;99253.63;;;0.09;100.00
70468;BME280;57934;51.532;7.684;2023-03-11T00:24:14;99265.63;;;0.10;100.00
70468;BME280;57934;51.532;7.684;2023-03-11T00:26:40;99265.63;;;0.10;100.00
70468;BME280;57934;51.532;7.684;2023-03-11T00:29:06;99272.44;;;0.11;100.00
70468;BME280;57934;51.532;7.684;2023-03-11T00:31:33;99279.56;;;0.09;100.00
70468;BME280;57934;51.532;7.684;2023-03-11T00:33:59;99286.22;;;0.11;100.00
70468;BME280;57934;51.532;7.684;2023-03-11T00:36:30;99275.69;;;0.13;100.00
70468;BME280;57934;51.532;7.684;2023-03-11T00:38:57;99285.41;;;0.11;100.00
70468;BME280;57934;51.532;7.684;2023-03-11T00:41:23;99283.47;;;0.13;100.00
70468;BME280;57934;51.532;7.684;2023-03-11T00:43:50;99291.09;;;0.14;100.00
70468;BME280;57934;51.532;7.684;2023-03-11T00:46:16;99297.44;;;0.20;100.00
70468;BME280;57934;51.532;7.684;2023-03-11T00:48:42;99299.53;;;0.16;100.00
70468;BME280;57934;51.532;7.684;2023-03-11T00:51:13;99300.78;;;0.12;100.00
70468;BME280;57934;51.532;7.684;2023-03-11T00:53:40;99301.00;;;0.19;100.00
70468;BME280;57934;51.532;7.684;2023-03-11T00:56:11;99299.38;;;0.18;100.00
70468;BME280;57934;51.532;7.684;2023-03-11T00:58:40;99310.78;;;0.25;100.00
70468;BME280;57934;51.532;7.684;2023-03-11T01:01:15;99314.22;;;0.34;100.00
70468;BME280;57934;51.532;7.684;2023-03-11T01:03:42;99319.59;;;0.32;100.00
70468;BME280;57934;51.532;7.684;2023-03-11T01:06:10;99317.78;;;0.33;100.00
70468;BME280;57934;51.532;7.684;2023-03-11T01:08:37;99324.31;;;0.37;100.00
70468;BME280;57934;51.532;7.684;2023-03-11T01:11:05;99330.91;;;0.31;100.00
70468;BME280;57934;51.532;7.684;2023-03-11T01:13:32;99324.75;;;0.32;100.00
70468;BME280;57934;51.532;7.684;2023-03-11T01:15:58;99328.31;;;0.31;100.00
70468;BME280;57934;51.532;7.684;2023-03-11T01:18:25;99327.44;;;0.22;100.00
70468;BME280;57934;51.532;7.684;2023-03-11T01:20:52;99339.00;;;0.28;100.00
70468;BME280;57934;51.532;7.684;2023-03-11T01:23:19;99345.50;;;0.32;100.00
70468;BME280;57934;51.532;7.684;2023-03-11T01:25:47;99345.00;;;0.29;100.00
70468;BME280;57934;51.532;7.684;2023-03-11T01:28:13;99340.97;;;0.34;100.00
70468;BME280;57934;51.532;7.684;2023-03-11T01:30:40;99350.00;;;0.30;100.00
70468;BME280;57934;51.532;7.684;2023-03-11T01:33:08;99347.88;;;0.26;100.00
70468;BME280;57934;51.532;7.684;2023-03-11T01:35:38;99352.69;;;0.20;100.00
70468;BME280;57934;51.532;7.684;2023-03-11T01:38:07;99357.06;;;0.20;100.00
70468;BME280;57934;51.532;7.684;2023-03-11T01:40:38;99355.91;;;0.14;100.00
70468;BME280;57934;51.532;7.684;2023-03-11T01:48:39;99344.34;;;0.09;100.00
70468;BME280;57934;51.532;7.684;2023-03-11T01:51:08;99340.56;;;0.03;100.00
70468;BME280;57934;51.532;7.684;2023-03-11T01:53:34;99350.63;;;0.06;100.00
70468;BME280;57934;51.532;7.684;2023-03-11T01:56:02;99352.41;;;0.06;100.00
70468;BME280;57934;51.532;7.684;2023-03-11T01:58:33;99351.88;;;0.02;100.00
70468;BME280;57934;51.532;7.684;2023-03-11T02:01:01;99361.50;;;0.10;100.00
70468;BME280;57934;51.532;7.684;2023-03-11T02:03:33;99355.00;;;0.06;100.00
70468;BME280;57934;51.532;7.684;2023-03-11T02:06:04;99365.06;;;0.09;100.00
70468;BME280;57934;51.532;7.684;2023-03-11T02:08:32;99364.91;;;0.10;100.00
70468;BME280;57934;51.532;7.684;2023-03-11T02:11:04;99365.41;;;0.14;100.00
70468;BME280;57934;51.532;7.684;2023-03-11T02:13:33;99359.59;;;0.12;100.00
70468;BME280;57934;51.532;7.684;2023-03-11T02:16:01;99366.09;;;0.16;100.00
70468;BME280;57934;51.532;7.684;2023-03-11T02:18:28;99361.72;;;0.16;100.00
70468;BME280;57934;51.532;7.684;2023-03-11T02:21:02;99365.41;;;0.14;100.00
70468;BME280;57934;51.532;7.684;2023-03-11T02:24:21;99365.94;;;0.17;100.00
70468;BME280;57934;51.532;7.684;2023-03-11T02:27:07;99366.25;;;0.14;100.00
70468;BME280;57934;51.532;7.684;2023-03-11T02:29:35;99370.47;;;0.15;100.00
70468;BME280;57934;51.532;7.684;2023-03-11T02:32:06;99372.09;;;0.16;100.00
70468;BME280;57934;51.532;7.684;2023-03-11T02:34:36;99373.41;;;0.20;100.00
70468;BME280;57934;51.532;7.684;2023-03-11T02:37:11;99365.75;;;0.11;100.00
70468;BME280;57934;51.532;7.684;2023-03-11T02:39:43;99374.16;;;0.13;100.00
70468;BME280;57934;51.532;7.684;2023-03-11T02:42:13;99377.72;;;0.12;100.00
70468;BME280;57934;51.532;7.684;2023-03-11T02:44:43;99373.66;;;0.09;100.00
70468;BME280;57934;51.532;7.684;2023-03-11T02:47:12;99375.78;;;0.14;100.00
70468;BME280;57934;51.532;7.684;2023-03-11T02:49:38;99382.47;;;0.16;100.00
70468;BME280;57934;51.532;7.684;2023-03-11T02:52:05;99381.94;;;0.13;100.00
70468;BME280;57934;51.532;7.684;2023-03-11T02:54:31;99384.53;;;0.13;100.00
70468;BME280;57934;51.532;7.684;2023-03-11T02:56:58;99393.81;;;0.15;100.00
70468;BME280;57934;51.532;7.684;2023-03-11T02:59:26;99393.81;;;0.15;100.00
70468;BME280;57934;51.532;7.684;2023-03-11T03:01:52;99401.66;;;0.06;100.00
70468;BME280;57934;51.532;7.684;2023-03-11T03:04:20;99402.16;;;0.09;100.00
70468;BME280;57934;51.532;7.684;2023-03-11T03:06:46;99405.56;;;0.10;100.00
70468;BME280;57934;51.532;7.684;2023-03-11T03:09:14;99411.88;;;0.07;100.00
70468;BME280;57934;51.532;7.684;2023-03-11T03:11:41;99408.69;;;0.13;100.00
70468;BME280;57934;51.532;7.684;2023-03-11T03:14:07;99420.16;;;0.11;100.00
70468;BME280;57934;51.532;7.684;2023-03-11T03:16:34;99420.16;;;0.11;100.00
70468;BME280;57934;51.532;7.684;2023-03-11T03:19:00;99422.91;;;0.09;100.00
70468;BME280;57934;51.532;7.684;2023-03-11T03:21:26;99430.09;;;0.15;100.00
70468;BME280;57934;51.532;7.684;2023-03-11T03:23:53;99429.69;;;0.10;100.00
70468;BME280;57934;51.532;7.684;2023-03-11T03:26:19;99439.66;;;0.15;100.00
70468;BME280;57934;51.532;7.684;2023-03-11T03:28:47;99444.66;;;0.16;100.00
70468;BME280;57934;51.532;7.684;2023-03-11T03:31:13;99446.75;;;0.13;100.00
70468;BME280;57934;51.532;7.684;2023-03-11T03:33:41;99442.59;;;0.20;100.00
70468;BME280;57934;51.532;7.684;2023-03-11T03:36:11;99445.06;;;0.21;100.00
70468;BME280;57934;51.532;7.684;2023-03-11T03:38:41;99440.16;;;0.18;100.00
70468;BME280;57934;51.532;7.684;2023-03-11T03:41:08;99435.50;;;0.22;100.00
70468;BME280;57934;51.532;7.684;2023-03-11T03:43:37;99448.59;;;0.20;100.00
70468;BME280;57934;51.532;7.684;2023-03-11T03:46:04;99447.94;;;0.18;100.00
70468;BME280;57934;51.532;7.684;2023-03-11T03:48:37;99450.25;;;0.21;100.00
70468;BME280;57934;51.532;7.684;2023-03-11T03:51:08;99446.44;;;0.16;100.00
70468;BME280;57934;51.532;7.684;2023-03-11T03:53:38;99452.16;;;0.19;100.00
70468;BME280;57934;51.532;7.684;2023-03-11T03:56:15;99460.59;;;0.21;100.00
70468;BME280;57934;51.532;7.684;2023-03-11T03:58:43;99456.28;;;0.12;100.00
70468;BME280;57934;51.532;7.684;2023-03-11T04:01:10;99458.22;;;0.10;100.00
70468;BME280;57934;51.532;7.684;2023-03-11T04:03:38;99462.88;;;0.07;100.00
70468;BME280;57934;51.532;7.684;2023-03-11T04:06:24;99468.22;;;0.05;100.00
70468;BME280;57934;51.532;7.684;2023-03-11T04:08:58;99462.75;;;0.08;100.00
70468;BME280;57934;51.532;7.684;2023-03-11T04:11:31;99475.31;;;0.03;100.00
70468;BME280;57934;51.532;7.684;2023-03-11T04:13:58;99473.38;;;0.05;100.00
70468;BME280;57934;51.532;7.684;2023-03-11T04:16:24;99479.78;;;0.11;100.00
70468;BME280;57934;51.532;7.684;2023-03-11T04:18:56;99478.41;;;0.07;100.00
70468;BME280;57934;51.532;7.684;2023-03-11T04:21:23;99478.94;;;0.10;100.00
70468;BME280;57934;51.532;7.684;2023-03-11T04:23:49;99488.66;;;0.08;100.00
70468;BME280;57934;51.532;7.684;2023-03-11T04:26:18;99486.63;;;0.02;100.00
70468;BME280;57934;51.532;7.684;2023-03-11T04:28:44;99491.00;;;0.02;100.00
70468;BME280;57934;51.532;7.684;2023-03-11T04:31:11;99493.84;;;0.08;100.00
70468;BME280;57934;51.532;7.684;2023-03-11T04:33:37;99500.00;;;0.07;100.00
70468;BME280;57934;51.532;7.684;2023-03-11T04:36:08;99501.59;;;0.08;100.00
70468;BME280;57934;51.532;7.684;2023-03-11T04:38:36;99498.22;;;0.08;100.00
70468;BME280;57934;51.532;7.684;2023-03-11T04:41:04;99501.91;;;0.05;100.00
70468;BME280;57934;51.532;7.684;2023-03-11T04:43:32;99503.38;;;0.08;100.00
70468;BME280;57934;51.532;7.684;2023-03-11T04:45:58;99503.50;;;0.06;100.00
70468;BME280;57934;51.532;7.684;2023-03-11T04:48:25;99517.28;;;0.07;100.00
70468;BME280;57934;51.532;7.684;2023-03-11T04:50:53;99519.22;;;0.05;100.00
70468;BME280;57934;51.532;7.684;2023-03-11T04:53:21;99533.00;;;0.05;100.00
70468;BME280;57934;51.532;7.684;2023-03-11T04:55:47;99527.66;;;0.07;100.00
70468;BME280;57934;51.532;7.684;2023-03-11T04:58:15;99531.47;;;0.12;100.00
70468;BME280;57934;51.532;7.684;2023-03-11T05:00:42;99536.47;;;0.14;100.00
70468;BME280;57934;51.532;7.684;2023-03-11T05:03:11;99534.09;;;0.03;100.00
70468;BME280;57934;51.532;7.684;2023-03-11T05:05:38;99538.88;;;0.07;100.00
70468;BME280;57934;51.532;7.684;2023-03-11T05:08:04;99539.00;;;0.06;100.00
70468;BME280;57934;51.532;7.684;2023-03-11T05:10:31;99540.47;;;0.08;100.00
70468;BME280;57934;51.532;7.684;2023-03-11T05:12:58;99535.81;;;0.12;99.65
70468;BME280;57934;51.532;7.684;2023-03-11T05:15:30;99536.84;;;0.01;99.39
70468;BME280;57934;51.532;7.684;2023-03-11T05:17:59;99543.56;;;-0.06;99.35
70468;BME280;57934;51.532;7.684;2023-03-11T05:20:25;99540.41;;;0.00;99.66
70468;BME280;57934;51.532;7.684;2023-03-11T05:22:51;99541.91;;;-0.07;99.46
70468;BME280;57934;51.532;7.684;2023-03-11T05:25:18;99552.25;;;-0.07;99.39
70468;BME280;57934;51.532;7.684;2023-03-11T05:27:44;99548.44;;;-0.03;99.20
70468;BME280;57934;51.532;7.684;2023-03-11T05:30:11;99543.00;;;0.00;99.03
70468;BME280;57934;51.532;7.684;2023-03-11T05:32:39;99557.16;;;-0.04;98.51
70468;BME280;57934;51.532;7.684;2023-03-11T05:35:06;99556.06;;;-0.02;98.95
70468;BME280;57934;51.532;7.684;2023-03-11T05:37:33;99564.94;;;-0.04;98.80
70468;BME280;57934;51.532;7.684;2023-03-11T05:40:02;99570.28;;;-0.06;98.80
70468;BME280;57934;51.532;7.684;2023-03-11T05:42:32;99570.53;;;0.01;98.73
70468;BME280;57934;51.532;7.684;2023-03-11T05:44:59;99571.63;;;-0.02;98.46
70468;BME280;57934;51.532;7.684;2023-03-11T05:47:26;99574.75;;;0.02;99.06
70468;BME280;57934;51.532;7.684;2023-03-11T05:49:54;99572.31;;;0.01;98.38
70468;BME280;57934;51.532;7.684;2023-03-11T05:52:21;99575.19;;;-0.03;98.14
70468;BME280;57934;51.532;7.684;2023-03-11T05:54:49;99576.28;;;-0.05;98.02
70468;BME280;57934;51.532;7.684;2023-03-11T05:57:17;99580.34;;;-0.03;98.06
70468;BME280;57934;51.532;7.684;2023-03-11T05:59:44;99583.59;;;-0.01;97.92
70468;BME280;57934;51.532;7.684;2023-03-11T06:02:10;99591.25;;;0.01;98.25
70468;BME280;57934;51.532;7.684;2023-03-11T06:04:38;99587.25;;;0.07;97.52
70468;BME280;57934;51.532;7.684;2023-03-11T06:07:05;99594.38;;;0.05;97.50
70468;BME280;57934;51.532;7.684;2023-03-11T06:09:34;99589.72;;;0.08;97.59
70468;BME280;57934;51.532;7.684;2023-03-11T06:12:03;99593.13;;;0.09;97.51
70468;BME280;57934;51.532;7.684;2023-03-11T06:14:42;99591.88;;;0.13;97.46
70468;BME280;57934;51.532;7.684;2023-03-11T06:17:08;99594.16;;;0.26;96.81
70468;BME280;57934;51.532;7.684;2023-03-11T06:19:34;99590.06;;;0.23;96.41
70468;BME280;57934;51.532;7.684;2023-03-11T06:22:01;99594.44;;;0.22;96.31
70468;BME280;57934;51.532;7.684;2023-03-11T06:24:28;99603.03;;;0.23;95.90
70468;BME280;57934;51.532;7.684;2023-03-11T06:26:54;99601.94;;;0.26;95.65
70468;BME280;57934;51.532;7.684;2023-03-11T06:29:23;99598.66;;;0.23;95.77
70468;BME280;57934;51.532;7.684;2023-03-11T06:31:52;99602.44;;;0.29;95.29
70468;BME280;57934;51.532;7.684;2023-03-11T06:34:19;99605.41;;;0.34;95.12
70468;BME280;57934;51.532;7.684;2023-03-11T06:36:45;99603.63;;;0.35;94.42
70468;BME280;57934;51.532;7.684;2023-03-11T06:39:14;99609.25;;;0.30;94.39
70468;BME280;57934;51.532;7.684;2023-03-11T06:41:43;99610.50;;;0.26;94.30
70468;BME280;57934;51.532;7.684;2023-03-11T06:44:11;99614.31;;;0.32;94.35
70468;BME280;57934;51.532;7.684;2023-03-11T06:46:38;99622.56;;;0.45;94.24
70468;BME280;57934;51.532;7.684;2023-03-11T06:49:05;99636.16;;;0.57;94.50
70468;BME280;57934;51.532;7.684;2023-03-11T06:51:32;99630.59;;;0.69;93.13
70468;BME280;57934;51.532;7.684;2023-03-11T06:53:58;99634.94;;;0.79;91.98
70468;BME280;57934;51.532;7.684;2023-03-11T06:56:25;99644.28;;;0.89;91.60
70468;BME280;57934;51.532;7.684;2023-03-11T06:58:58;99642.44;;;1.00;91.13
70468;BME280;57934;51.532;7.684;2023-03-11T07:01:29;99650.75;;;1.03;90.58
70468;BME280;57934;51.532;7.684;2023-03-11T07:03:56;99660.31;;;1.03;90.04
70468;BME280;57934;51.532;7.684;2023-03-11T07:06:25;99664.53;;;1.04;89.71
70468;BME280;57934;51.532;7.684;2023-03-11T07:08:56;99667.59;;;0.99;89.39
70468;BME280;57934;51.532;7.684;2023-03-11T07:11:24;99679.66;;;0.90;89.26
70468;BME280;57934;51.532;7.684;2023-03-11T07:13:54;99671.53;;;0.76;89.56
70468;BME280;57934;51.532;7.684;2023-03-11T07:16:25;99682.13;;;0.64;89.24
70468;BME280;57934;51.532;7.684;2023-03-11T07:18:57;99682.84;;;0.57;89.57
70468;BME280;57934;51.532;7.684;2023-03-11T07:21:27;99684.94;;;0.43;89.89
70468;BME280;57934;51.532;7.684;2023-03-11T07:23:55;99696.56;;;0.39;90.50
70468;BME280;57934;51.532;7.684;2023-03-11T07:26:22;99701.03;;;0.47;90.45
70468;BME280;57934;51.532;7.684;2023-03-11T07:28:49;99709.44;;;0.59;90.30
70468;BME280;57934;51.532;7.684;2023-03-11T07:31:17;99710.91;;;0.71;89.55
70468;BME280;57934;51.532;7.684;2023-03-11T07:33:44;99713.44;;;0.81;89.43
70468;BME280;57934;51.532;7.684;2023-03-11T07:36:13;99713.38;;;0.90;88.76
70468;BME280;57934;51.532;7.684;2023-03-11T07:38:40;99729.97;;;1.07;88.18
70468;BME280;57934;51.532;7.684;2023-03-11T07:41:08;99733.38;;;1.26;87.49
70468;BME280;57934;51.532;7.684;2023-03-11T07:43:36;99729.84;;;1.45;86.69
70468;BME280;57934;51.532;7.684;2023-03-11T07:46:03;99742.91;;;1.71;85.91
70468;BME280;57934;51.532;7.684;2023-03-11T07:48:30;99734.28;;;1.88;84.12
70468;BME280;57934;51.532;7.684;2023-03-11T07:51:05;99740.56;;;2.03;82.68
70468;BME280;57934;51.532;7.684;2023-03-11T07:53:31;99747.28;;;2.14;81.55
70468;BME280;57934;51.532;7.684;2023-03-11T07:55:58;99740.72;;;2.28;80.18
70468;BME280;57934;51.532;7.684;2023-03-11T07:58:25;99747.50;;;2.47;79.08
70468;BME280;57934;51.532;7.684;2023-03-11T08:00:51;99752.97;;;2.70;78.30
70468;BME280;57934;51.532;7.684;2023-03-11T08:03:17;99753.84;;;2.78;76.78
70468;BME280;57934;51.532;7.684;2023-03-11T08:05:43;99755.44;;;3.05;76.07
70468;BME280;57934;51.532;7.684;2023-03-11T08:08:09;99758.91;;;3.30;74.42
70468;BME280;57934;51.532;7.684;2023-03-11T08:10:36;99760.41;;;3.57;74.00
70468;BME280;57934;51.532;7.684;2023-03-11T08:13:03;99764.69;;;3.83;71.40
70468;BME280;57934;51.532;7.684;2023-03-11T08:15:29;99761.69;;;4.51;69.73
70468;BME280;57934;51.532;7.684;2023-03-11T08:17:55;99760.72;;;5.54;67.31
70468;BME280;57934;51.532;7.684;2023-03-11T08:20:21;99762.84;;;6.42;63.58
70468;BME280;57934;51.532;7.684;2023-03-11T08:22:47;99767.59;;;7.49;60.06
70468;BME280;57934;51.532;7.684;2023-03-11T08:25:13;99762.22;;;8.50;56.81
70468;BME280;57934;51.532;7.684;2023-03-11T08:27:39;99767.50;;;9.52;52.56
70468;BME280;57934;51.532;7.684;2023-03-11T08:30:08;99773.25;;;10.22;49.88
70468;BME280;57934;51.532;7.684;2023-03-11T08:32:35;99778.22;;;10.90;47.64
70468;BME280;57934;51.532;7.684;2023-03-11T08:35:01;99784.19;;;11.62;45.29
70468;BME280;57934;51.532;7.684;2023-03-11T08:37:27;99787.63;;;12.01;43.22
70468;BME280;57934;51.532;7.684;2023-03-11T08:39:53;99791.91;;;12.71;40.88
70468;BME280;57934;51.532;7.684;2023-03-11T08:42:20;99785.72;;;13.13;41.13
70468;BME280;57934;51.532;7.684;2023-03-11T08:44:46;99788.94;;;13.94;40.78
70468;BME280;57934;51.532;7.684;2023-03-11T08:47:12;99790.13;;;14.33;38.46
70468;BME280;57934;51.532;7.684;2023-03-11T08:49:38;99781.94;;;14.35;37.47
70468;BME280;57934;51.532;7.684;2023-03-11T08:52:04;99783.31;;;14.49;37.94
70468;BME280;57934;51.532;7.684;2023-03-11T08:54:31;99783.31;;;14.26;36.43
70468;BME280;57934;51.532;7.684;2023-03-11T08:56:58;99785.94;;;14.14;37.47
70468;BME280;57934;51.532;7.684;2023-03-11T08:59:28;99791.63;;;14.76;36.21
70468;BME280;57934;51.532;7.684;2023-03-11T09:01:54;99794.63;;;14.80;34.69
70468;BME280;57934;51.532;7.684;2023-03-11T09:04:21;99793.59;;;14.93;34.66
70468;BME280;57934;51.532;7.684;2023-03-11T09:06:48;99782.97;;;14.81;33.95
70468;BME280;57934;51.532;7.684;2023-03-11T09:09:14;99785.50;;;14.17;35.74
70468;BME280;57934;51.532;7.684;2023-03-11T09:11:46;99782.69;;;13.89;35.02
70468;BME280;57934;51.532;7.684;2023-03-11T09:14:13;99796.22;;;14.46;34.66
70468;BME280;57934;51.532;7.684;2023-03-11T09:16:39;99800.03;;;14.15;35.42
70468;BME280;57934;51.532;7.684;2023-03-11T09:19:05;99795.31;;;14.87;34.90
70468;BME280;57934;51.532;7.684;2023-03-11T09:21:36;99792.81;;;14.69;34.67
70468;BME280;57934;51.532;7.684;2023-03-11T09:24:03;99791.88;;;14.75;35.04
70468;BME280;57934;51.532;7.684;2023-03-11T09:26:31;99790.66;;;15.46;34.52
70468;BME280;57934;51.532;7.684;2023-03-11T09:28:57;99789.28;;;14.09;35.33
70468;BME280;57934;51.532;7.684;2023-03-11T09:31:23;99794.34;;;13.57;36.13
70468;BME280;57934;51.532;7.684;2023-03-11T09:33:50;99794.84;;;11.87;38.42
70468;BME280;57934;51.532;7.684;2023-03-11T09:36:20;99811.56;;;10.18;41.67
70468;BME280;57934;51.532;7.684;2023-03-11T09:38:47;99805.59;;;8.74;43.70
70468;BME280;57934;51.532;7.684;2023-03-11T09:44:26;99807.66;;;7.43;47.09
70468;BME280;57934;51.532;7.684;2023-03-11T09:53:03;99816.34;;;9.14;43.25
70468;BME280;57934;51.532;7.684;2023-03-11T09:55:49;99829.19;;;7.75;45.86
70468;BME280;57934;51.532;7.684;2023-03-11T10:00:59;99837.81;;;5.97;49.34
70468;BME280;57934;51.532;7.684;2023-03-11T10:03:32;99840.56;;;5.42;50.06
70468;BME280;57934;51.532;7.684;2023-03-11T10:06:28;99839.94;;;5.32;52.86
70468;BME280;57934;51.532;7.684;2023-03-11T10:11:51;99844.28;;;8.52;45.35
70468;BME280;57934;51.532;7.684;2023-03-11T10:17:39;99837.91;;;10.51;40.19
70468;BME280;57934;51.532;7.684;2023-03-11T10:25:40;99840.06;;;12.29;36.72
70468;BME280;57934;51.532;7.684;2023-03-11T10:28:18;99836.59;;;13.52;35.70
70468;BME280;57934;51.532;7.684;2023-03-11T10:31:27;99840.44;;;14.87;33.49
70468;BME280;57934;51.532;7.684;2023-03-11T10:37:17;99840.97;;;15.13;31.96
70468;BME280;57934;51.532;7.684;2023-03-11T10:39:46;99843.53;;;15.60;31.16
70468;BME280;57934;51.532;7.684;2023-03-11T10:42:23;99839.28;;;15.07;31.82
70468;BME280;57934;51.532;7.684;2023-03-11T10:44:49;99845.72;;;12.58;33.50
70468;BME280;57934;51.532;7.684;2023-03-11T10:47:17;99852.50;;;11.52;35.63
70468;BME280;57934;51.532;7.684;2023-03-11T10:49:44;99847.34;;;12.09;36.02
70468;BME280;57934;51.532;7.684;2023-03-11T10:52:11;99840.72;;;13.48;34.94
70468;BME280;57934;51.532;7.684;2023-03-11T10:54:42;99852.56;;;14.60;32.80
70468;BME280;57934;51.532;7.684;2023-03-11T10:57:28;99847.44;;;15.57;31.74
70468;BME280;57934;51.532;7.684;2023-03-11T11:00:03;99848.78;;;16.00;30.29
70468;BME280;57934;51.532;7.684;2023-03-11T11:02:54;99845.88;;;17.03;30.25
70468;BME280;57934;51.532;7.684;2023-03-11T11:05:30;99847.66;;;18.17;29.09
70468;BME280;57934;51.532;7.684;2023-03-11T11:08:14;99849.84;;;17.22;29.01
70468;BME280;57934;51.532;7.684;2023-03-11T11:10:55;99852.19;;;18.17;27.89
70468;BME280;57934;51.532;7.684;2023-03-11T11:13:24;99842.50;;;18.38;26.91
70468;BME280;57934;51.532;7.684;2023-03-11T11:15:58;99858.78;;;17.33;28.03
70468;BME280;57934;51.532;7.684;2023-03-11T11:21:07;99863.53;;;14.51;30.65
70468;BME280;57934;51.532;7.684;2023-03-11T11:23:46;99867.41;;;11.78;35.38
70468;BME280;57934;51.532;7.684;2023-03-11T11:26:23;99866.94;;;9.64;39.83
70468;BME280;57934;51.532;7.684;2023-03-11T11:31:39;99859.91;;;7.23;45.29
70468;BME280;57934;51.532;7.684;2023-03-11T11:34:31;99861.09;;;7.57;46.37
70468;BME280;57934;51.532;7.684;2023-03-11T11:37:03;99854.09;;;10.15;41.05
70468;BME280;57934;51.532;7.684;2023-03-11T11:39:39;99854.19;;;12.16;38.45
70468;BME280;57934;51.532;7.684;2023-03-11T11:42:11;99860.84;;;13.12;35.33
70468;BME280;57934;51.532;7.684;2023-03-11T11:44:38;99835.75;;;14.12;33.51
70468;BME280;57934;51.532;7.684;2023-03-11T11:47:13;99834.19;;;14.35;32.93
70468;BME280;57934;51.532;7.684;2023-03-11T11:49:49;99844.59;;;14.83;31.68
70468;BME280;57934;51.532;7.684;2023-03-11T11:52:26;99838.94;;;15.55;30.26
70468;BME280;57934;51.532;7.684;2023-03-11T11:57:32;99832.97;;;14.07;31.39
70468;BME280;57934;51.532;7.684;2023-03-11T12:00:00;99839.19;;;14.78;32.26
70468;BME280;57934;51.532;7.684;2023-03-11T12:02:55;99832.72;;;14.62;31.83
70468;BME280;57934;51.532;7.684;2023-03-11T12:05:31;99839.16;;;12.67;33.68
70468;BME280;57934;51.532;7.684;2023-03-11T12:08:13;99837.09;;;12.44;34.00
70468;BME280;57934;51.532;7.684;2023-03-11T12:18:43;99839.66;;;12.32;33.69
70468;BME280;57934;51.532;7.684;2023-03-11T12:30:03;99836.72;;;9.46;41.07
70468;BME280;57934;51.532;7.684;2023-03-11T12:32:39;99839.13;;;9.41;38.79
70468;BME280;57934;51.532;7.684;2023-03-11T12:35:25;99831.56;;;9.25;39.57
70468;BME280;57934;51.532;7.684;2023-03-11T12:40:51;99844.31;;;8.58;39.23
70468;BME280;57934;51.532;7.684;2023-03-11T12:50:52;99859.28;;;8.15;40.96
70468;BME280;57934;51.532;7.684;2023-03-11T12:53:19;99859.84;;;8.32;43.21
70468;BME280;57934;51.532;7.684;2023-03-11T12:56:28;99862.34;;;7.97;43.71
70468;BME280;57934;51.532;7.684;2023-03-11T12:59:10;99858.66;;;7.55;43.97
70468;BME280;57934;51.532;7.684;2023-03-11T13:01:52;99861.22;;;7.85;45.58
70468;BME280;57934;51.532;7.684;2023-03-11T13:12:51;99865.41;;;7.64;45.74
70468;BME280;57934;51.532;7.684;2023-03-11T13:33:44;99860.03;;;7.51;44.62
70468;BME280;57934;51.532;7.684;2023-03-11T13:41:51;99861.84;;;6.77;48.26
70468;BME280;57934;51.532;7.684;2023-03-11T13:46:46;99860.69;;;6.94;47.31
70468;BME280;57934;51.532;7.684;2023-03-11T13:51:56;99862.56;;;7.30;44.20
70468;BME280;57934;51.532;7.684;2023-03-11T13:54:46;99860.22;;;7.50;42.99
70468;BME280;57934;51.532;7.684;2023-03-11T13:59:53;99860.22;;;7.50;44.02
70468;BME280;57934;51.532;7.684;2023-03-11T14:02:25;99857.16;;;7.31;45.12
70468;BME280;57934;51.532;7.684;2023-03-11T14:05:01;99851.38;;;7.21;44.30
70468;BME280;57934;51.532;7.684;2023-03-11T14:07:31;99863.41;;;7.15;43.08
70468;BME280;57934;51.532;7.684;2023-03-11T14:12:40;99865.94;;;6.41;42.26
70468;BME280;57934;51.532;7.684;2023-03-11T14:15:07;99863.25;;;6.50;44.77
70468;BME280;57934;51.532;7.684;2023-03-11T14:17:37;99868.56;;;6.56;45.05
70468;BME280;57934;51.532;7.684;2023-03-11T14:20:11;99865.47;;;6.38;43.52
70468;BME280;57934;51.532;7.684;2023-03-11T14:22:43;99870.94;;;6.28;43.79
70468;BME280;57934;51.532;7.684;2023-03-11T14:25:18;99864.31;;;6.40;44.67
70468;BME280;57934;51.532;7.684;2023-03-11T14:27:50;99867.84;;;6.48;44.35
70468;BME280;57934;51.532;7.684;2023-03-11T14:30:35;99863.31;;;6.41;44.93
70468;BME280;57934;51.532;7.684;2023-03-11T14:33:05;99863.56;;;6.09;43.59
70468;BME280;57934;51.532;7.684;2023-03-11T14:35:32;99861.66;;;6.03;44.96
70468;BME280;57934;51.532;7.684;2023-03-11T14:37:59;99863.84;;;6.14;47.51
70468;BME280;57934;51.532;7.684;2023-03-11T14:40:31;99865.88;;;6.27;44.15
70468;BME280;57934;51.532;7.684;2023-03-11T14:43:05;99861.22;;;6.37;44.14
70468;BME280;57934;51.532;7.684;2023-03-11T14:45:34;99863.16;;;6.43;44.91
70468;BME280;57934;51.532;7.684;2023-03-11T14:48:12;99864.41;;;6.47;45.77
70468;BME280;57934;51.532;7.684;2023-03-11T14:50:44;99863.06;;;6.51;44.14
70468;BME280;57934;51.532;7.684;2023-03-11T14:53:17;99869.53;;;6.63;45.96
70468;BME280;57934;51.532;7.684;2023-03-11T14:55:49;99875.50;;;6.72;45.03
70468;BME280;57934;51.532;7.684;2023-03-11T15:00:49;99868.81;;;6.84;44.74
70468;BME280;57934;51.532;7.684;2023-03-11T15:03:21;99873.81;;;6.56;45.27
70468;BME280;57934;51.532;7.684;2023-03-11T15:05:55;99879.03;;;6.41;44.33
70468;BME280;57934;51.532;7.684;2023-03-11T15:08:25;99876.75;;;6.38;46.21
70468;BME280;57934;51.532;7.684;2023-03-11T15:13:38;99885.59;;;6.60;44.56
70468;BME280;57934;51.532;7.684;2023-03-11T15:16:20;99877.47;;;6.70;43.70